This is the latest recevied weather packets stored in our database for station/object KC3QLX. If no packets are shown the sender has not sent any weather packets the latest 10 day(s).
| Time | Temp. | Humidity | Pressure | Rain* | Wind** | Luminosity | Snow |
|---|---|---|---|---|---|---|---|
| 1777839005 | 15° C | 35% | 1011.3 hPa | 0 mm | - | 530 W/m² | - |
| 1777838701 | 14.44° C | 38% | 1011.4 hPa | 0 mm | - | 127 W/m² | - |
| 1777838397 | 13.89° C | 37% | 1011.5 hPa | 0 mm | - | 183 W/m² | - |
| 1777838095 | 14.44° C | 37% | 1011.4 hPa | 0 mm | - | 148 W/m² | - |
| 1777837791 | 15° C | 37% | 1011.7 hPa | 0 mm | - | 579 W/m² | - |
| 1777837489 | 15° C | 36% | 1011.7 hPa | 0 mm | - | 174 W/m² | - |
| 1777837184 | 15.56° C | 35% | 1011.8 hPa | 0 mm | - | 157 W/m² | - |
| 1777836880 | 14.44° C | 37% | 1011.9 hPa | 0 mm | - | 680 W/m² | - |
| 1777836575 | 14.44° C | 37% | 1011.8 hPa | 0 mm | - | 162 W/m² | - |
| 1777836272 | 13.89° C | 36% | 1012 hPa | 0 mm | - | 571 W/m² | - |
| 1777835967 | 14.44° C | 35% | 1012.3 hPa | 0 mm | - | 357 W/m² | - |
| 1777835666 | 14.44° C | 34% | 1011.9 hPa | 0 mm | - | 582 W/m² | - |
| 1777835362 | 15° C | 35% | 1012.2 hPa | 0 mm | - | 639 W/m² | - |
| 1777835059 | 14.44° C | 36% | 1012 hPa | 0 mm | - | 658 W/m² | - |
| 1777834756 | 14.44° C | 35% | 1012.1 hPa | 0 mm | - | 644 W/m² | - |
| 1777834452 | 13.33° C | 37% | 1012.3 hPa | 0 mm | - | 599 W/m² | - |
| 1777834151 | 13.89° C | 38% | 1012.2 hPa | 0 mm | - | 130 W/m² | - |
| 1777833849 | 13.89° C | 38% | 1012.4 hPa | 0 mm | - | 645 W/m² | - |
| 1777833545 | 13.89° C | 36% | 1012.5 hPa | 0 mm | - | 173 W/m² | - |
| 1777833241 | 13.33° C | 39% | 1012.6 hPa | 0 mm | - | 237 W/m² | - |
| 1777832939 | 13.89° C | 37% | 1012.7 hPa | 0 mm | - | 303 W/m² | - |
| 1777832637 | 12.78° C | 42% | 1012.8 hPa | 0 mm | - | 709 W/m² | - |
| 1777832334 | 13.33° C | 38% | 1012.9 hPa | 0 mm | - | 136 W/m² | - |
| 1777832031 | 13.33° C | 39% | 1012.7 hPa | 0 mm | - | 739 W/m² | - |
| 1777831727 | 12.78° C | 40% | 1012.9 hPa | 0 mm | - | 769 W/m² | - |
* Rain latest hour (hover to see other rain measurements)
** Current wind speed in m/s (hover to see current wind gust speed)